Share

Agency Village, SD

6:27 PM CDT on April 23, 2014 (GMT -0500)
RAWS MARSHALL CO SD US (MMRLS2) Elev 2009 ft | 45.80 °N, 97.45 °W | Change Station
Active Advisory: Wind Advisory

Current weather conditions updated 28 minutes ago

Mostly Cloudy
Mostly Cloudy
39 °F
Feels Like 39 °F
N
0
Wind Variable Wind from North
Gusts 0.0 mph
Sunrise 6:28 AM
Sunset 8:25 PM
Moon Waning Crescent

Tomorrow is forecast to be Much Warmer than today. Morning showers.

Pressure 29.81 in
Visibility 10.0 miles
Clouds Mostly Cloudy 4200 ft
Windchill 39 °F
Dew Point 39 °F
Humidity 100%
Rainfall 0.30 in
Snow Depth Not available.
UV 1 out of 16
Pollen 7.60 out of 12
Air Quality Not available.
Flu Activity Sporadic
METAR KETH 232315Z AUTO 11020G27KT 10SM BKN042 07/04 A2981 RMK AO2 LTG DSNT N

More Conditions Fewer Conditions

Pressure 29.81 in
Visibility 10.0 miles
Clouds Mostly Cloudy 4200 ft
Windchill 39 °F
Dew Point 39 °F
Humidity 100%
Rainfall 0.30 in
Snow Depth Not available.
UV 1 out of 16
Pollen 7.60 out of 12
Air Quality Not available.
Flu Activity Sporadic
METAR KETH 232315Z AUTO 11020G27KT 10SM BKN042 07/04 A2981 RMK AO2 LTG DSNT N

More Conditions Fewer Conditions

10-Day Weather Forecast

Almanac

Astronomy

Apr. 23, 2014 Rise Set
Actual Time 6:28 AM CDT 8:25 PM CDT
Civil Twilight 5:56 AM CDT 8:57 PM CDT
Nautical Twilight 5:17 AM CDT 9:36 PM CDT
Astronomical Twilight 4:34 AM CDT 10:19 PM CDT
Moon 3:19 AM CDT 2:17 PM CDT
Length of Visible Light 15h 00m
Length of Day
13h 56m
Tomorrow will be 2m 58s longer.
Waning Crescent, 32% of the Moon is Illuminated
Today
Waning Crescent
Apr 29
New
May 6
First Quarter
May 14
Full
May 21
Last Quarter

Today's Extremes

State Highs State Lows

Community

  • Nestled In
    Nestled In
  • Stunning Sunrise
    Stunning Sunrise
  • spring flowers
    spring flowers
  • Earth Day Spectrum Ove' Blue
    Earth Day Spectrum Ove' Blue
  • BARN B&W
    BARN B&W

WunderPhotos

Upload Photos

1,704,452 photos uploaded!

WunderBlogs® & News

Nearby

Snow Depth

Station Depth Elevation
North Rapid Creek 10 in 6130 ft
Blind Park 9 in 6890 ft

Coastal Water Temperatures

Place Temperature
No Stations Reporting

Earthquake Activity

City Distance Mag. Time & Date
No recent earthquake activity has been reported nearby.
Minimum magnitude displayed is 2.5.

Nearby Weather Stations

Station Location Temp. Windchill Dew Point Humidity Wind Precip. Elev Updated Type
RAWS MARSHALL CO SD, Lake City, SD 39 °F 39 °F 39 °F 100% North  at  0 mph 0.00 in / hr 2009 ft 5:59 PM CDT MADIS

Show More Stations Show Fewer Stations

What do you think?

We're not finished. Please let us know what you like, what you don't like, and what you are still missing.